createdAt,value
2017-11-17T00:00:11.521Z,14.50
2017-11-17T00:02:40.531Z,15.93
2017-11-17T00:05:10.167Z,15.70
2017-11-17T00:07:43.269Z,16.40
2017-11-17T00:10:12.528Z,17.73
2017-11-17T00:12:41.505Z,18.47
2017-11-17T00:15:10.716Z,20.13
2017-11-17T00:17:40.486Z,17.57
2017-11-17T00:20:09.727Z,18.93
2017-11-17T00:22:39.138Z,19.03
2017-11-17T00:25:10.031Z,18.80
2017-11-17T00:27:39.752Z,19.97
2017-11-17T00:30:09.402Z,19.10
2017-11-17T00:32:38.693Z,17.63
2017-11-17T00:35:08.048Z,19.50
2017-11-17T00:37:36.773Z,18.30
2017-11-17T00:40:06.288Z,17.37
2017-11-17T00:42:35.793Z,16.87
2017-11-17T00:45:05.486Z,16.83
2017-11-17T00:47:34.386Z,18.30
2017-11-17T00:50:03.232Z,17.67
2017-11-17T00:52:32.379Z,17.60
2017-11-17T00:55:01.266Z,16.90
2017-11-17T00:57:30.311Z,19.30
2017-11-17T00:59:59.213Z,18.00
2017-11-17T01:02:28.918Z,17.77
2017-11-17T01:04:58.055Z,17.37
2017-11-17T01:07:27.465Z,18.10
2017-11-17T01:09:56.489Z,18.00
2017-11-17T01:12:25.772Z,16.73
2017-11-17T01:14:54.840Z,17.23
2017-11-17T01:17:23.902Z,21.00
2017-11-17T01:19:53.078Z,19.40
2017-11-17T01:22:22.536Z,17.80
2017-11-17T01:24:51.383Z,17.93
2017-11-17T01:27:21.431Z,18.80
2017-11-17T01:29:50.237Z,17.60
2017-11-17T01:32:20.568Z,18.00
2017-11-17T01:34:49.900Z,19.53
2017-11-17T01:37:18.750Z,17.27
2017-11-17T01:39:47.642Z,18.77
2017-11-17T01:42:16.696Z,19.20
2017-11-17T01:44:46.559Z,31.70
2017-11-17T01:47:15.850Z,18.97
2017-11-17T01:49:44.645Z,19.20
2017-11-17T01:52:13.529Z,17.90
2017-11-17T01:54:42.627Z,17.77
2017-11-17T01:57:11.634Z,18.30
2017-11-17T01:59:40.615Z,19.30
2017-11-17T02:02:20.768Z,18.40
2017-11-17T02:04:49.659Z,17.10
2017-11-17T02:07:18.759Z,17.90
2017-11-17T02:09:47.648Z,18.67
2017-11-17T02:12:16.439Z,19.70
2017-11-17T02:14:45.330Z,17.30
2017-11-17T02:17:14.215Z,16.53
2017-11-17T02:19:43.108Z,17.27
2017-11-17T02:22:11.998Z,18.00
2017-11-17T02:24:40.889Z,17.63
2017-11-17T02:27:09.881Z,16.60
2017-11-17T02:29:39.182Z,17.00
2017-11-17T02:32:08.483Z,16.30
2017-11-17T02:34:37.581Z,17.17
2017-11-17T02:37:06.418Z,16.43
2017-11-17T02:39:35.875Z,17.70
2017-11-17T02:42:04.768Z,16.30
2017-11-17T02:44:34.372Z,15.80
2017-11-17T02:47:03.359Z,17.27
2017-11-17T02:49:32.772Z,17.80
2017-11-17T02:52:01.613Z,15.60
2017-11-17T02:54:31.781Z,16.37
2017-11-17T02:57:00.677Z,16.00
2017-11-17T02:59:29.460Z,16.17
2017-11-17T03:01:58.248Z,15.60
2017-11-17T03:04:27.152Z,15.00
2017-11-17T03:06:56.445Z,14.67
2017-11-17T03:09:25.332Z,14.73
2017-11-17T03:11:54.225Z,14.70
2017-11-17T03:14:23.113Z,16.67
2017-11-17T03:16:52.824Z,16.27
2017-11-17T03:19:22.333Z,15.57
2017-11-17T03:21:51.788Z,16.07
2017-11-17T03:24:20.520Z,16.50
2017-11-17T03:26:49.311Z,16.33
2017-11-17T03:29:18.040Z,16.70
2017-11-17T03:31:46.988Z,17.30
2017-11-17T03:34:15.679Z,16.47
2017-11-17T03:36:45.178Z,14.90
2017-11-17T03:39:14.074Z,15.20
2017-11-17T03:41:43.298Z,15.20
2017-11-17T03:44:12.773Z,15.80
2017-11-17T03:46:42.892Z,15.30
2017-11-17T03:49:12.394Z,14.53
2017-11-17T03:51:41.702Z,15.53
2017-11-17T03:54:10.661Z,15.93
2017-11-17T03:56:40.097Z,15.80
2017-11-17T03:59:08.784Z,14.70
2017-11-17T04:01:37.671Z,16.17
2017-11-17T04:04:06.884Z,14.63
2017-11-17T04:06:35.660Z,16.47
2017-11-17T04:09:05.271Z,15.70
2017-11-17T04:11:33.956Z,15.30
2017-11-17T04:14:02.641Z,16.13
2017-11-17T04:16:31.480Z,14.27
2017-11-17T04:19:01.040Z,15.60
2017-11-17T04:21:30.541Z,17.30
2017-11-17T04:23:59.783Z,15.57
2017-11-17T04:26:29.346Z,16.40
2017-11-17T04:28:58.545Z,14.47
2017-11-17T04:31:27.270Z,15.83
2017-11-17T04:33:56.023Z,13.83
2017-11-17T04:36:26.040Z,15.40
2017-11-17T04:38:55.338Z,16.00
2017-11-17T04:41:25.560Z,13.87
2017-11-17T04:43:55.067Z,13.53
2017-11-17T04:46:23.812Z,15.33
2017-11-17T04:48:52.541Z,15.43
2017-11-17T04:51:21.229Z,15.20
2017-11-17T04:53:51.143Z,16.70
2017-11-17T04:56:20.034Z,15.13
2017-11-17T04:58:49.641Z,15.40
2017-11-17T05:01:19.296Z,15.93
2017-11-17T05:03:48.696Z,15.00
2017-11-17T05:06:17.445Z,15.80
2017-11-17T05:08:46.536Z,16.60
2017-11-17T05:11:16.864Z,18.60
2017-11-17T05:13:45.962Z,15.30
2017-11-17T05:16:14.849Z,16.07
2017-11-17T05:18:44.148Z,16.43
2017-11-17T05:21:13.346Z,16.30
2017-11-17T05:23:42.546Z,15.33
2017-11-17T05:26:11.436Z,17.27
2017-11-17T05:28:40.122Z,15.40
2017-11-17T05:31:10.256Z,16.57
2017-11-17T05:33:39.441Z,14.60
2017-11-17T05:36:08.127Z,15.07
2017-11-17T05:38:36.813Z,17.87
2017-11-17T05:41:05.702Z,16.67
2017-11-17T05:43:34.390Z,16.97
2017-11-17T05:46:03.997Z,16.60
2017-11-17T05:48:33.093Z,16.37
2017-11-17T05:51:01.983Z,15.57
2017-11-17T05:53:30.876Z,18.60
2017-11-17T05:55:59.974Z,17.20
2017-11-17T05:58:29.067Z,15.67
2017-11-17T06:00:58.574Z,16.80
2017-11-17T06:03:28.078Z,17.07
2017-11-17T06:05:57.890Z,18.20
2017-11-17T06:08:26.579Z,18.40
2017-11-17T06:10:55.274Z,16.40
2017-11-17T06:13:23.960Z,17.90
2017-11-17T06:15:52.842Z,15.97
2017-11-17T06:18:21.939Z,15.73
2017-11-17T06:20:51.031Z,15.50
2017-11-17T06:23:20.332Z,15.90
2017-11-17T06:25:50.195Z,16.23
2017-11-17T06:28:19.490Z,17.90
2017-11-17T06:30:48.645Z,16.93
2017-11-17T06:33:18.763Z,16.93
2017-11-17T06:35:47.449Z,17.40
2017-11-17T06:38:17.058Z,18.13
2017-11-17T06:40:45.948Z,16.40
2017-11-17T06:43:15.250Z,18.00
2017-11-17T06:45:44.754Z,17.80
2017-11-17T06:48:13.441Z,21.80
2017-11-17T06:50:42.946Z,17.60
2017-11-17T06:53:12.045Z,16.70
2017-11-17T06:55:41.556Z,18.33
2017-11-17T06:58:14.535Z,17.53
2017-11-17T07:00:43.432Z,16.23
2017-11-17T07:03:12.265Z,16.20
2017-11-17T07:05:41.003Z,20.47
2017-11-17T07:08:09.687Z,17.60
2017-11-17T07:10:38.527Z,17.27
2017-11-17T07:13:07.267Z,18.87
2017-11-17T07:15:37.392Z,17.50
2017-11-17T07:18:06.624Z,18.27
2017-11-17T07:20:35.531Z,18.80
2017-11-17T07:23:04.268Z,17.77
2017-11-17T07:25:34.281Z,18.03
2017-11-17T07:28:03.786Z,18.20
2017-11-17T07:30:33.296Z,19.23
2017-11-17T07:33:01.979Z,18.70
2017-11-17T07:35:31.892Z,17.97
2017-11-17T07:38:00.989Z,18.57
2017-11-17T07:40:29.677Z,18.00
2017-11-17T07:42:58.770Z,18.00
2017-11-17T07:45:28.896Z,18.63
2017-11-17T07:47:59.382Z,19.10
2017-11-17T07:50:28.106Z,18.83
2017-11-17T07:52:57.185Z,25.90
2017-11-17T07:55:26.714Z,21.63
2017-11-17T07:57:55.538Z,21.93
2017-11-17T08:00:25.721Z,19.00
2017-11-17T08:02:55.017Z,18.83
2017-11-17T08:05:29.646Z,19.33
2017-11-17T08:07:59.253Z,19.23
2017-11-17T08:10:28.156Z,18.70
2017-11-17T08:12:57.647Z,19.73
2017-11-17T08:15:26.748Z,19.83
2017-11-17T08:18:07.308Z,18.10
2017-11-17T08:20:37.635Z,17.57
2017-11-17T08:23:07.344Z,20.83
2017-11-17T08:25:36.670Z,19.63
2017-11-17T08:28:06.356Z,19.70
2017-11-17T08:30:35.496Z,18.73
2017-11-17T08:33:05.060Z,19.23
2017-11-17T08:35:34.156Z,19.83
2017-11-17T08:38:04.068Z,19.40
2017-11-17T08:40:32.758Z,22.10
2017-11-17T08:43:01.444Z,20.27
2017-11-17T08:45:30.305Z,20.00
2017-11-17T08:48:00.257Z,21.90
2017-11-17T08:50:29.557Z,19.93
2017-11-17T08:52:59.066Z,22.93
2017-11-17T08:55:27.956Z,20.10
2017-11-17T08:57:58.686Z,19.43
2017-11-17T09:00:27.979Z,20.00
2017-11-17T09:02:57.288Z,18.33
2017-11-17T09:05:26.581Z,19.40
2017-11-17T09:07:55.265Z,20.70
2017-11-17T09:10:23.954Z,21.40
2017-11-17T09:12:53.262Z,23.10
2017-11-17T09:15:21.941Z,22.70
2017-11-17T09:17:51.035Z,19.60
2017-11-17T09:20:20.643Z,20.17
2017-11-17T09:22:49.739Z,20.63
2017-11-17T09:25:19.246Z,17.90
2017-11-17T09:27:48.141Z,20.97
2017-11-17T09:30:17.435Z,25.60
2017-11-17T09:32:46.576Z,19.77
2017-11-17T09:35:15.535Z,20.00
2017-11-17T09:37:44.826Z,21.70
2017-11-17T09:40:14.745Z,20.90
2017-11-17T09:42:43.842Z,23.10
2017-11-17T09:45:13.217Z,22.87
2017-11-17T09:47:43.051Z,24.47
2017-11-17T09:50:13.180Z,23.20
2017-11-17T09:52:42.681Z,23.27
2017-11-17T09:55:11.569Z,22.63
2017-11-17T09:57:41.381Z,23.00
2017-11-17T10:00:11.103Z,24.37
2017-11-17T10:02:39.982Z,23.93
2017-11-17T10:05:10.309Z,23.33
2017-11-17T10:07:39.821Z,23.23
2017-11-17T10:10:08.706Z,25.40
2017-11-17T10:12:38.217Z,25.03
2017-11-17T10:15:07.921Z,29.13
2017-11-17T10:17:37.364Z,24.30
2017-11-17T10:20:06.315Z,23.90
2017-11-17T10:22:35.825Z,23.63
2017-11-17T10:25:05.065Z,27.03
2017-11-17T10:27:34.625Z,22.70
2017-11-17T10:30:04.140Z,23.80
2017-11-17T10:32:33.642Z,23.40
2017-11-17T10:35:04.377Z,24.10
2017-11-17T10:37:34.087Z,30.03
2017-11-17T10:40:03.803Z,25.83
2017-11-17T10:42:33.100Z,21.90
2017-11-17T10:45:03.433Z,21.73
2017-11-17T10:47:33.538Z,22.07
2017-11-17T10:50:03.045Z,23.03
2017-11-17T10:52:32.500Z,22.73
2017-11-17T10:55:01.661Z,23.10
2017-11-17T10:57:31.367Z,23.13
2017-11-17T11:00:00.658Z,22.60
2017-11-17T11:02:30.575Z,23.30
2017-11-17T11:04:59.685Z,21.47
2017-11-17T11:07:29.461Z,20.83
2017-11-17T11:09:59.300Z,22.40
2017-11-17T11:12:28.803Z,22.03
2017-11-17T11:14:58.302Z,23.67
2017-11-17T11:17:28.010Z,22.00
2017-11-17T11:19:58.029Z,22.97
2017-11-17T11:22:27.635Z,22.93
2017-11-17T11:24:56.322Z,26.57
2017-11-17T11:27:26.648Z,26.20
2017-11-17T11:29:56.257Z,21.77
2017-11-17T11:32:25.865Z,21.90
2017-11-17T11:34:55.581Z,24.13
2017-11-17T11:37:24.679Z,25.37
2017-11-17T11:39:54.588Z,23.17
2017-11-17T11:42:23.884Z,23.30
2017-11-17T11:44:53.597Z,24.27
2017-11-17T11:47:23.863Z,22.50
2017-11-17T11:49:53.782Z,23.10
2017-11-17T11:52:24.066Z,22.30
2017-11-17T11:54:53.664Z,20.30
2017-11-17T11:57:22.759Z,21.57
2017-11-17T11:59:51.651Z,22.47
2017-11-17T12:02:21.573Z,16.77
2017-11-17T12:04:50.668Z,16.50
2017-11-17T12:07:19.551Z,9.37
2017-11-17T12:09:49.261Z,11.37
2017-11-17T12:12:18.307Z,10.07
2017-11-17T12:14:48.278Z,20.43
2017-11-17T12:17:17.793Z,24.23
2017-11-17T12:19:46.882Z,24.33
2017-11-17T12:22:16.969Z,23.57
2017-11-17T12:24:46.519Z,22.57
2017-11-17T12:27:16.826Z,24.40
2017-11-17T12:29:46.533Z,24.07
2017-11-17T12:32:15.371Z,23.13
2017-11-17T12:34:44.529Z,22.60
2017-11-17T12:37:13.658Z,22.10
2017-11-17T12:39:43.131Z,22.73
2017-11-17T12:42:12.217Z,22.33
2017-11-17T12:44:41.837Z,22.40
2017-11-17T12:47:10.821Z,24.07
2017-11-17T12:49:39.920Z,23.10
2017-11-17T12:52:09.010Z,20.97
2017-11-17T12:54:38.698Z,23.77
2017-11-17T12:57:09.053Z,25.00
2017-11-17T12:59:39.415Z,30.77
2017-11-17T13:02:09.561Z,23.60
2017-11-17T13:04:39.632Z,23.40
2017-11-17T13:07:09.738Z,24.17
2017-11-17T13:09:39.031Z,22.40
2017-11-17T13:12:08.750Z,21.33
2017-11-17T13:14:39.256Z,23.27
2017-11-17T13:17:08.673Z,25.10
2017-11-17T13:19:38.417Z,24.33
2017-11-17T13:22:08.087Z,21.70
2017-11-17T13:24:37.844Z,24.27
2017-11-17T13:27:07.704Z,24.80
2017-11-17T13:29:36.723Z,23.97
2017-11-17T13:32:06.933Z,25.13
2017-11-17T13:34:36.389Z,26.63
2017-11-17T13:37:06.956Z,24.87
2017-11-17T13:39:36.514Z,26.70
2017-11-17T13:42:06.196Z,25.10
2017-11-17T13:44:36.592Z,23.43
2017-11-17T13:47:06.017Z,26.20
2017-11-17T13:49:35.856Z,23.13
2017-11-17T13:52:05.337Z,22.30
2017-11-17T13:54:34.714Z,23.43
2017-11-17T13:57:04.248Z,26.13
2017-11-17T13:59:33.747Z,27.63
2017-11-17T14:02:03.261Z,25.20
2017-11-17T14:04:33.164Z,25.40
2017-11-17T14:07:03.879Z,25.80
2017-11-17T14:09:33.917Z,25.80
2017-11-17T14:12:04.416Z,29.07
2017-11-17T14:14:33.904Z,27.30
2017-11-17T14:17:04.077Z,27.40
2017-11-17T14:19:34.522Z,26.63
2017-11-17T14:22:03.437Z,26.90
2017-11-17T14:24:33.100Z,22.63
2017-11-17T14:27:01.786Z,24.52
2017-11-17T14:29:30.885Z,26.90
2017-11-17T14:32:01.003Z,27.93
2017-11-17T14:34:30.507Z,25.70
2017-11-17T14:37:00.021Z,25.67
2017-11-17T14:39:29.519Z,26.27
2017-11-17T14:41:59.127Z,26.30
2017-11-17T14:44:28.715Z,23.20
2017-11-17T14:46:57.833Z,24.50
2017-11-17T14:49:27.790Z,24.47
2017-11-17T14:51:57.457Z,24.07
2017-11-17T14:54:32.694Z,24.47
2017-11-17T14:57:02.309Z,24.50
2017-11-17T14:59:31.608Z,24.20
2017-11-17T15:02:01.462Z,22.80
2017-11-17T15:04:35.634Z,22.50
2017-11-17T15:07:05.239Z,24.63
2017-11-17T15:09:34.744Z,22.07
2017-11-17T15:12:04.506Z,25.77
2017-11-17T15:14:34.177Z,24.13
2017-11-17T15:17:03.537Z,22.10
2017-11-17T15:19:33.133Z,21.33
2017-11-17T15:22:03.506Z,19.40
2017-11-17T15:24:33.805Z,28.50
2017-11-17T15:27:03.951Z,24.53
2017-11-17T15:29:34.076Z,21.00
2017-11-17T15:32:03.790Z,21.17
2017-11-17T15:34:34.709Z,20.03
2017-11-17T15:37:04.023Z,20.80
2017-11-17T15:39:33.905Z,21.27
2017-11-17T15:42:02.902Z,21.93
2017-11-17T15:44:32.224Z,22.30
2017-11-17T15:47:01.530Z,20.83
2017-11-17T15:49:32.269Z,20.70
2017-11-17T15:52:01.605Z,20.13
2017-11-17T15:54:32.091Z,19.70
2017-11-17T15:57:02.144Z,19.53
2017-11-17T15:59:31.717Z,19.23
2017-11-17T16:02:01.522Z,22.57
2017-11-17T16:04:31.321Z,21.50
2017-11-17T16:07:01.542Z,20.97
2017-11-17T16:09:31.170Z,21.27
2017-11-17T16:12:00.683Z,19.40
2017-11-17T16:14:29.573Z,18.30
2017-11-17T16:16:59.282Z,17.73
2017-11-17T16:19:28.165Z,19.23
2017-11-17T16:21:57.671Z,19.70
2017-11-17T16:24:27.585Z,19.80
2017-11-17T16:26:59.958Z,20.97
2017-11-17T16:29:30.284Z,19.90
2017-11-17T16:31:59.897Z,19.50
2017-11-17T16:34:29.602Z,18.50
2017-11-17T16:36:58.799Z,19.73
2017-11-17T16:39:28.307Z,20.30
2017-11-17T16:41:57.995Z,18.57
2017-11-17T16:44:27.634Z,19.70
2017-11-17T16:46:56.925Z,19.80
2017-11-17T16:49:27.262Z,20.67
2017-11-17T16:51:56.964Z,20.60
2017-11-17T16:54:27.079Z,18.27
2017-11-17T16:56:55.968Z,18.63
2017-11-17T16:59:25.065Z,19.80
2017-11-17T17:01:54.572Z,20.37
2017-11-17T17:04:23.463Z,20.43
2017-11-17T17:06:53.378Z,21.60
2017-11-17T17:09:22.985Z,21.90
2017-11-17T17:11:52.248Z,21.43
2017-11-17T17:14:21.176Z,21.73
2017-11-17T17:16:51.092Z,20.40
2017-11-17T17:22:10.058Z,21.70
2017-11-17T17:24:39.413Z,20.67
2017-11-17T17:27:08.508Z,22.30
2017-11-17T17:29:37.812Z,22.70
2017-11-17T17:32:07.837Z,21.87
2017-11-17T17:34:38.357Z,21.10
2017-11-17T17:37:08.685Z,22.80
2017-11-17T17:39:38.189Z,25.40
2017-11-17T17:42:08.102Z,23.50
2017-11-17T17:44:38.427Z,22.10
2017-11-17T17:47:07.701Z,23.43
2017-11-17T17:49:37.314Z,23.00
2017-11-17T17:52:06.021Z,22.23
2017-11-17T17:54:35.346Z,23.53
2017-11-17T17:57:05.199Z,26.47
2017-11-17T17:59:35.357Z,25.70
2017-11-17T18:02:05.684Z,23.43
2017-11-17T18:04:34.985Z,22.43
2017-11-17T18:07:05.102Z,22.60
2017-11-17T18:09:35.323Z,24.15
2017-11-17T18:12:04.885Z,23.07
2017-11-17T18:14:34.540Z,25.80
2017-11-17T18:17:03.883Z,23.53
2017-11-17T18:19:33.562Z,24.87
2017-11-17T18:22:03.669Z,26.07
2017-11-17T18:24:32.973Z,24.13
2017-11-17T18:27:02.288Z,25.23
2017-11-17T18:29:32.437Z,23.50
2017-11-17T18:32:01.494Z,27.63
2017-11-17T18:34:31.821Z,26.97
2017-11-17T18:37:01.736Z,24.53
2017-11-17T18:39:31.670Z,25.80
2017-11-17T18:42:01.358Z,25.47
2017-11-17T18:44:30.235Z,24.73
2017-11-17T18:46:59.752Z,23.50
2017-11-17T18:49:28.862Z,27.50
2017-11-17T18:51:59.229Z,28.35
2017-11-17T18:54:28.074Z,31.63
2017-11-17T18:56:57.158Z,29.17
2017-11-17T18:59:26.326Z,30.48
2017-11-17T19:01:55.759Z,29.67
2017-11-17T19:04:25.315Z,28.60
2017-11-17T19:06:54.790Z,29.80
2017-11-17T19:09:25.095Z,27.93
2017-11-17T19:11:55.065Z,26.30
2017-11-17T19:14:24.660Z,27.90
2017-11-17T19:16:54.232Z,26.50
2017-11-17T19:19:23.543Z,26.90
2017-11-17T19:21:53.006Z,25.50
2017-11-17T19:24:22.687Z,29.03
2017-11-17T19:26:52.451Z,28.10
2017-11-17T19:29:21.648Z,29.20
2017-11-17T19:31:51.981Z,27.67
2017-11-17T19:34:21.173Z,28.33
2017-11-17T19:36:51.502Z,29.90
2017-11-17T19:39:22.234Z,27.80
2017-11-17T19:41:51.532Z,31.30
2017-11-17T19:44:20.638Z,32.20
2017-11-17T19:46:49.871Z,33.27
2017-11-17T19:49:19.739Z,31.27
2017-11-17T19:51:49.221Z,36.50
2017-11-17T19:54:19.237Z,45.10
2017-11-17T19:56:47.847Z,40.53
2017-11-17T19:59:17.102Z,33.70
2017-11-17T20:01:47.064Z,32.80
2017-11-17T20:04:16.928Z,32.90
2017-11-17T20:06:46.433Z,36.20
2017-11-17T20:09:15.373Z,32.10
2017-11-17T20:11:44.265Z,33.17
2017-11-17T20:14:13.746Z,32.27
2017-11-17T20:16:42.678Z,31.63
2017-11-17T20:19:12.407Z,31.97
2017-11-17T20:21:41.417Z,28.30
2017-11-17T20:24:12.183Z,33.47
2017-11-17T20:26:41.309Z,30.80
2017-11-17T20:29:10.768Z,27.30
2017-11-17T20:31:39.489Z,31.27
2017-11-17T20:34:09.709Z,29.33
2017-11-17T20:36:39.240Z,29.93
2017-11-17T20:39:09.036Z,31.60
2017-11-17T20:41:39.353Z,36.73
2017-11-17T20:44:08.048Z,36.83
2017-11-17T20:46:37.544Z,35.73
2017-11-17T20:49:13.401Z,36.97
2017-11-17T20:51:42.700Z,38.80
2017-11-17T20:54:11.387Z,36.67
2017-11-17T20:56:40.287Z,35.30
2017-11-17T20:59:09.988Z,38.70
2017-11-17T21:01:39.494Z,40.13
2017-11-17T21:04:09.008Z,37.37
2017-11-17T21:06:38.708Z,34.93
2017-11-17T21:09:08.008Z,37.80
2017-11-17T21:11:37.869Z,35.80
2017-11-17T21:14:07.638Z,34.73
2017-11-17T21:16:37.961Z,35.17
2017-11-17T21:19:06.851Z,35.53
2017-11-17T21:21:36.354Z,36.28
2017-11-17T21:24:06.685Z,34.50
2017-11-17T21:26:36.596Z,36.27
2017-11-17T21:29:06.489Z,32.40
2017-11-17T21:31:35.810Z,36.83
2017-11-17T21:34:04.700Z,35.20
2017-11-17T21:36:34.621Z,38.03
2017-11-17T21:39:04.644Z,36.40
2017-11-17T21:41:33.995Z,34.70
2017-11-17T21:44:03.951Z,32.40
2017-11-17T21:46:33.058Z,30.43
2017-11-17T21:49:02.758Z,32.50
2017-11-17T21:51:31.885Z,29.13
2017-11-17T21:54:01.184Z,27.43
2017-11-17T21:56:31.479Z,29.20
2017-11-17T21:59:00.575Z,29.50
2017-11-17T22:01:29.443Z,29.80
2017-11-17T22:03:58.778Z,27.00
2017-11-17T22:06:28.686Z,26.60
2017-11-17T22:08:57.981Z,28.70
2017-11-17T22:11:27.698Z,26.67
2017-11-17T22:13:58.405Z,27.60
2017-11-17T22:16:27.874Z,27.53
2017-11-17T22:18:57.030Z,32.93
2017-11-17T22:21:26.129Z,26.27
2017-11-17T22:23:55.181Z,24.27
2017-11-17T22:26:25.958Z,25.27
2017-11-17T22:28:55.529Z,24.13
2017-11-17T22:31:24.553Z,27.00
2017-11-17T22:33:53.607Z,27.53
2017-11-17T22:36:22.336Z,24.90
2017-11-17T22:38:51.228Z,25.97
2017-11-17T22:41:20.528Z,26.27
2017-11-17T22:43:50.419Z,23.07
2017-11-17T22:46:20.401Z,25.37
2017-11-17T22:48:49.810Z,25.40
2017-11-17T22:51:18.965Z,21.67
2017-11-17T22:53:48.877Z,19.97
2017-11-17T22:56:18.183Z,24.33
2017-11-17T22:58:47.478Z,23.70
2017-11-17T23:01:16.983Z,22.90
2017-11-17T23:03:46.116Z,21.73
2017-11-17T23:06:15.606Z,22.67
2017-11-17T23:08:44.481Z,25.90
2017-11-17T23:11:14.569Z,21.03
2017-11-17T23:13:43.689Z,26.80
2017-11-17T23:16:12.791Z,20.87
2017-11-17T23:18:42.088Z,18.43
2017-11-17T23:21:11.644Z,19.80
2017-11-17T23:23:41.246Z,19.30
2017-11-17T23:26:10.602Z,20.80
2017-11-17T23:28:40.929Z,18.90
2017-11-17T23:31:10.798Z,17.97
2017-11-17T23:33:40.559Z,18.80
2017-11-17T23:36:11.364Z,19.27
2017-11-17T23:38:41.302Z,19.57
2017-11-17T23:41:10.816Z,19.77
2017-11-17T23:43:41.136Z,19.23
2017-11-17T23:46:10.852Z,18.40
2017-11-17T23:48:40.962Z,19.13
2017-11-17T23:51:09.803Z,18.87
2017-11-17T23:53:38.745Z,22.53
2017-11-17T23:56:07.722Z,20.60
2017-11-17T23:58:37.301Z,22.07
